sensor_id;sensor_type;location;lat;lon;timestamp;P1;durP1;ratioP1;P2;durP2;ratioP2
81510;SDS011;70931;48.796;8.440;2024-01-30T00:00:06;3.63;;;1.20;;
81510;SDS011;70931;48.796;8.440;2024-01-30T00:02:32;4.72;;;1.63;;
81510;SDS011;70931;48.796;8.440;2024-01-30T00:04:57;6.53;;;1.70;;
81510;SDS011;70931;48.796;8.440;2024-01-30T00:07:22;4.33;;;1.50;;
81510;SDS011;70931;48.796;8.440;2024-01-30T00:09:47;4.43;;;1.90;;
81510;SDS011;70931;48.796;8.440;2024-01-30T00:12:13;3.90;;;1.70;;
81510;SDS011;70931;48.796;8.440;2024-01-30T00:14:38;4.03;;;1.60;;
81510;SDS011;70931;48.796;8.440;2024-01-30T00:17:03;4.53;;;1.90;;
81510;SDS011;70931;48.796;8.440;2024-01-30T00:19:28;4.47;;;1.90;;
81510;SDS011;70931;48.796;8.440;2024-01-30T00:21:54;4.30;;;1.80;;
81510;SDS011;70931;48.796;8.440;2024-01-30T00:24:19;3.80;;;1.40;;
81510;SDS011;70931;48.796;8.440;2024-01-30T00:26:44;6.20;;;1.60;;
81510;SDS011;70931;48.796;8.440;2024-01-30T00:29:09;4.30;;;1.60;;
81510;SDS011;70931;48.796;8.440;2024-01-30T00:31:35;3.47;;;1.47;;
81510;SDS011;70931;48.796;8.440;2024-01-30T00:34:00;4.17;;;1.50;;
81510;SDS011;70931;48.796;8.440;2024-01-30T00:36:25;4.17;;;1.57;;
81510;SDS011;70931;48.796;8.440;2024-01-30T00:38:50;4.73;;;1.60;;
81510;SDS011;70931;48.796;8.440;2024-01-30T00:41:17;5.73;;;1.97;;
81510;SDS011;70931;48.796;8.440;2024-01-30T00:43:43;4.70;;;1.70;;
81510;SDS011;70931;48.796;8.440;2024-01-30T00:46:08;3.70;;;1.87;;
81510;SDS011;70931;48.796;8.440;2024-01-30T00:48:33;4.33;;;1.50;;
81510;SDS011;70931;48.796;8.440;2024-01-30T00:50:58;3.50;;;1.60;;
81510;SDS011;70931;48.796;8.440;2024-01-30T00:53:23;4.57;;;1.77;;
81510;SDS011;70931;48.796;8.440;2024-01-30T00:55:49;4.37;;;1.60;;
81510;SDS011;70931;48.796;8.440;2024-01-30T00:58:14;4.43;;;1.63;;
81510;SDS011;70931;48.796;8.440;2024-01-30T01:00:39;4.47;;;1.73;;
81510;SDS011;70931;48.796;8.440;2024-01-30T01:03:04;3.53;;;1.40;;
81510;SDS011;70931;48.796;8.440;2024-01-30T01:05:30;5.57;;;1.80;;
81510;SDS011;70931;48.796;8.440;2024-01-30T01:07:55;3.70;;;1.70;;
81510;SDS011;70931;48.796;8.440;2024-01-30T01:10:21;3.70;;;1.60;;
81510;SDS011;70931;48.796;8.440;2024-01-30T01:12:46;3.50;;;1.30;;
81510;SDS011;70931;48.796;8.440;2024-01-30T01:15:13;3.72;;;1.50;;
81510;SDS011;70931;48.796;8.440;2024-01-30T01:17:38;4.57;;;1.50;;
81510;SDS011;70931;48.796;8.440;2024-01-30T01:20:04;4.80;;;1.58;;
81510;SDS011;70931;48.796;8.440;2024-01-30T01:22:30;4.82;;;1.50;;
81510;SDS011;70931;48.796;8.440;2024-01-30T01:24:56;3.90;;;1.52;;
81510;SDS011;70931;48.796;8.440;2024-01-30T01:27:21;4.13;;;1.63;;
81510;SDS011;70931;48.796;8.440;2024-01-30T01:29:46;4.00;;;1.60;;
81510;SDS011;70931;48.796;8.440;2024-01-30T01:32:11;5.20;;;1.40;;
81510;SDS011;70931;48.796;8.440;2024-01-30T01:34:36;6.07;;;1.67;;
81510;SDS011;70931;48.796;8.440;2024-01-30T01:37:02;4.27;;;1.43;;
81510;SDS011;70931;48.796;8.440;2024-01-30T01:39:27;4.73;;;1.90;;
81510;SDS011;70931;48.796;8.440;2024-01-30T01:41:52;4.70;;;1.50;;
81510;SDS011;70931;48.796;8.440;2024-01-30T01:44:18;4.13;;;1.63;;
81510;SDS011;70931;48.796;8.440;2024-01-30T01:46:43;4.80;;;1.55;;
81510;SDS011;70931;48.796;8.440;2024-01-30T01:49:09;3.35;;;1.50;;
81510;SDS011;70931;48.796;8.440;2024-01-30T01:51:35;4.25;;;1.50;;
81510;SDS011;70931;48.796;8.440;2024-01-30T01:54:02;4.68;;;1.63;;
81510;SDS011;70931;48.796;8.440;2024-01-30T01:56:30;4.35;;;1.73;;
81510;SDS011;70931;48.796;8.440;2024-01-30T01:58:56;3.88;;;1.50;;
81510;SDS011;70931;48.796;8.440;2024-01-30T02:01:25;4.53;;;1.70;;
81510;SDS011;70931;48.796;8.440;2024-01-30T02:03:52;5.78;;;1.67;;
81510;SDS011;70931;48.796;8.440;2024-01-30T02:06:17;5.97;;;1.80;;
81510;SDS011;70931;48.796;8.440;2024-01-30T02:08:42;4.03;;;1.50;;
81510;SDS011;70931;48.796;8.440;2024-01-30T02:11:08;5.17;;;2.00;;
81510;SDS011;70931;48.796;8.440;2024-01-30T02:13:34;4.13;;;1.58;;
81510;SDS011;70931;48.796;8.440;2024-01-30T02:15:59;5.03;;;1.57;;
81510;SDS011;70931;48.796;8.440;2024-01-30T02:18:24;3.63;;;1.30;;
81510;SDS011;70931;48.796;8.440;2024-01-30T02:20:50;6.37;;;1.70;;
81510;SDS011;70931;48.796;8.440;2024-01-30T02:23:19;5.20;;;2.00;;
81510;SDS011;70931;48.796;8.440;2024-01-30T02:25:45;4.25;;;1.73;;
81510;SDS011;70931;48.796;8.440;2024-01-30T02:28:10;3.60;;;1.60;;
81510;SDS011;70931;48.796;8.440;2024-01-30T02:30:36;4.03;;;1.70;;
81510;SDS011;70931;48.796;8.440;2024-01-30T02:33:01;4.40;;;1.67;;
81510;SDS011;70931;48.796;8.440;2024-01-30T02:35:27;4.07;;;1.57;;
81510;SDS011;70931;48.796;8.440;2024-01-30T02:37:52;4.87;;;1.57;;
81510;SDS011;70931;48.796;8.440;2024-01-30T02:40:17;5.27;;;1.60;;
81510;SDS011;70931;48.796;8.440;2024-01-30T02:42:42;5.13;;;1.63;;
81510;SDS011;70931;48.796;8.440;2024-01-30T02:45:08;4.93;;;1.73;;
81510;SDS011;70931;48.796;8.440;2024-01-30T02:47:34;4.28;;;1.60;;
81510;SDS011;70931;48.796;8.440;2024-01-30T02:49:59;5.03;;;1.97;;
81510;SDS011;70931;48.796;8.440;2024-01-30T02:52:24;4.30;;;1.63;;
81510;SDS011;70931;48.796;8.440;2024-01-30T02:54:50;4.50;;;1.67;;
81510;SDS011;70931;48.796;8.440;2024-01-30T02:57:15;3.67;;;1.60;;
81510;SDS011;70931;48.796;8.440;2024-01-30T02:59:40;5.37;;;1.80;;
81510;SDS011;70931;48.796;8.440;2024-01-30T03:02:05;3.87;;;1.47;;
81510;SDS011;70931;48.796;8.440;2024-01-30T03:04:30;3.90;;;1.40;;
81510;SDS011;70931;48.796;8.440;2024-01-30T03:06:56;5.87;;;1.60;;
81510;SDS011;70931;48.796;8.440;2024-01-30T03:09:21;4.10;;;1.53;;
81510;SDS011;70931;48.796;8.440;2024-01-30T03:11:46;3.67;;;1.40;;
81510;SDS011;70931;48.796;8.440;2024-01-30T03:14:11;5.43;;;1.47;;
81510;SDS011;70931;48.796;8.440;2024-01-30T03:16:37;4.40;;;1.70;;
81510;SDS011;70931;48.796;8.440;2024-01-30T03:19:02;3.65;;;1.50;;
81510;SDS011;70931;48.796;8.440;2024-01-30T03:21:27;3.77;;;1.63;;
81510;SDS011;70931;48.796;8.440;2024-01-30T03:23:53;4.53;;;1.63;;
81510;SDS011;70931;48.796;8.440;2024-01-30T03:26:18;4.43;;;1.50;;
81510;SDS011;70931;48.796;8.440;2024-01-30T03:28:43;3.23;;;1.57;;
81510;SDS011;70931;48.796;8.440;2024-01-30T03:31:08;4.53;;;1.73;;
81510;SDS011;70931;48.796;8.440;2024-01-30T03:33:33;4.70;;;1.50;;
81510;SDS011;70931;48.796;8.440;2024-01-30T03:36:02;4.07;;;1.57;;
81510;SDS011;70931;48.796;8.440;2024-01-30T03:38:28;7.05;;;1.40;;
81510;SDS011;70931;48.796;8.440;2024-01-30T03:40:53;5.27;;;1.93;;
81510;SDS011;70931;48.796;8.440;2024-01-30T03:43:18;3.63;;;1.60;;
81510;SDS011;70931;48.796;8.440;2024-01-30T03:45:43;8.53;;;3.90;;
81510;SDS011;70931;48.796;8.440;2024-01-30T03:48:09;5.73;;;2.40;;
81510;SDS011;70931;48.796;8.440;2024-01-30T03:50:34;4.73;;;1.60;;
81510;SDS011;70931;48.796;8.440;2024-01-30T03:52:59;5.07;;;1.87;;
81510;SDS011;70931;48.796;8.440;2024-01-30T03:55:24;4.83;;;1.67;;
81510;SDS011;70931;48.796;8.440;2024-01-30T03:57:50;5.38;;;1.77;;
81510;SDS011;70931;48.796;8.440;2024-01-30T04:00:15;4.07;;;1.70;;
81510;SDS011;70931;48.796;8.440;2024-01-30T04:02:40;4.82;;;2.13;;
81510;SDS011;70931;48.796;8.440;2024-01-30T04:05:06;4.87;;;1.80;;
81510;SDS011;70931;48.796;8.440;2024-01-30T04:09:56;4.63;;;1.83;;
81510;SDS011;70931;48.796;8.440;2024-01-30T04:12:21;4.23;;;1.80;;
81510;SDS011;70931;48.796;8.440;2024-01-30T04:14:47;6.97;;;2.90;;
81510;SDS011;70931;48.796;8.440;2024-01-30T04:17:12;5.00;;;1.90;;
81510;SDS011;70931;48.796;8.440;2024-01-30T04:19:37;4.90;;;1.80;;
81510;SDS011;70931;48.796;8.440;2024-01-30T04:22:02;5.10;;;1.93;;
81510;SDS011;70931;48.796;8.440;2024-01-30T04:24:28;4.93;;;1.98;;
81510;SDS011;70931;48.796;8.440;2024-01-30T04:26:53;4.17;;;1.57;;
81510;SDS011;70931;48.796;8.440;2024-01-30T04:29:18;4.77;;;1.90;;
81510;SDS011;70931;48.796;8.440;2024-01-30T04:31:43;5.07;;;2.00;;
81510;SDS011;70931;48.796;8.440;2024-01-30T04:34:09;5.43;;;1.83;;
81510;SDS011;70931;48.796;8.440;2024-01-30T04:36:34;4.17;;;1.70;;
81510;SDS011;70931;48.796;8.440;2024-01-30T04:38:59;5.40;;;2.10;;
81510;SDS011;70931;48.796;8.440;2024-01-30T04:41:24;5.60;;;1.67;;
81510;SDS011;70931;48.796;8.440;2024-01-30T04:43:49;4.33;;;1.67;;
81510;SDS011;70931;48.796;8.440;2024-01-30T04:46:15;4.87;;;2.20;;
81510;SDS011;70931;48.796;8.440;2024-01-30T04:48:40;3.07;;;1.40;;
81510;SDS011;70931;48.796;8.440;2024-01-30T04:51:05;4.53;;;1.67;;
81510;SDS011;70931;48.796;8.440;2024-01-30T04:53:30;6.43;;;2.13;;
81510;SDS011;70931;48.796;8.440;2024-01-30T04:55:56;7.10;;;2.17;;
81510;SDS011;70931;48.796;8.440;2024-01-30T04:58:21;5.87;;;2.00;;
81510;SDS011;70931;48.796;8.440;2024-01-30T05:00:46;4.43;;;1.77;;
81510;SDS011;70931;48.796;8.440;2024-01-30T05:03:11;3.43;;;1.43;;
81510;SDS011;70931;48.796;8.440;2024-01-30T05:05:36;4.77;;;1.73;;
81510;SDS011;70931;48.796;8.440;2024-01-30T05:08:02;4.50;;;1.60;;
81510;SDS011;70931;48.796;8.440;2024-01-30T05:10:27;7.10;;;2.85;;
81510;SDS011;70931;48.796;8.440;2024-01-30T05:12:52;7.13;;;2.50;;
81510;SDS011;70931;48.796;8.440;2024-01-30T05:15:18;6.10;;;1.90;;
81510;SDS011;70931;48.796;8.440;2024-01-30T05:17:44;5.10;;;1.90;;
81510;SDS011;70931;48.796;8.440;2024-01-30T05:20:09;5.70;;;2.33;;
81510;SDS011;70931;48.796;8.440;2024-01-30T05:22:35;5.75;;;2.33;;
81510;SDS011;70931;48.796;8.440;2024-01-30T05:25:00;6.00;;;2.13;;
81510;SDS011;70931;48.796;8.440;2024-01-30T05:27:26;4.80;;;2.17;;
81510;SDS011;70931;48.796;8.440;2024-01-30T05:29:51;7.37;;;2.30;;
81510;SDS011;70931;48.796;8.440;2024-01-30T05:32:16;5.67;;;2.57;;
81510;SDS011;70931;48.796;8.440;2024-01-30T05:34:41;5.67;;;2.40;;
81510;SDS011;70931;48.796;8.440;2024-01-30T05:37:07;4.93;;;2.13;;
81510;SDS011;70931;48.796;8.440;2024-01-30T05:39:32;6.30;;;2.10;;
81510;SDS011;70931;48.796;8.440;2024-01-30T05:41:57;6.07;;;2.50;;
81510;SDS011;70931;48.796;8.440;2024-01-30T05:44:22;6.03;;;2.20;;
81510;SDS011;70931;48.796;8.440;2024-01-30T05:46:47;5.77;;;1.80;;
81510;SDS011;70931;48.796;8.440;2024-01-30T05:49:13;4.97;;;1.77;;
81510;SDS011;70931;48.796;8.440;2024-01-30T05:51:38;4.37;;;1.93;;
81510;SDS011;70931;48.796;8.440;2024-01-30T05:54:03;5.67;;;1.80;;
81510;SDS011;70931;48.796;8.440;2024-01-30T05:56:28;4.00;;;1.60;;
81510;SDS011;70931;48.796;8.440;2024-01-30T05:58:54;4.93;;;2.00;;
81510;SDS011;70931;48.796;8.440;2024-01-30T06:01:19;3.50;;;1.43;;
81510;SDS011;70931;48.796;8.440;2024-01-30T06:03:44;4.93;;;1.90;;
81510;SDS011;70931;48.796;8.440;2024-01-30T06:06:09;4.70;;;1.87;;
81510;SDS011;70931;48.796;8.440;2024-01-30T06:08:35;6.80;;;1.97;;
81510;SDS011;70931;48.796;8.440;2024-01-30T06:11:00;4.97;;;1.70;;
81510;SDS011;70931;48.796;8.440;2024-01-30T06:13:25;5.13;;;1.70;;
81510;SDS011;70931;48.796;8.440;2024-01-30T06:15:50;4.87;;;2.03;;
81510;SDS011;70931;48.796;8.440;2024-01-30T06:18:16;3.77;;;1.67;;
81510;SDS011;70931;48.796;8.440;2024-01-30T06:20:41;4.63;;;1.80;;
81510;SDS011;70931;48.796;8.440;2024-01-30T06:23:06;5.33;;;2.27;;
81510;SDS011;70931;48.796;8.440;2024-01-30T06:25:31;4.87;;;2.13;;
81510;SDS011;70931;48.796;8.440;2024-01-30T06:27:57;5.50;;;2.40;;
81510;SDS011;70931;48.796;8.440;2024-01-30T06:30:22;10.10;;;3.17;;
81510;SDS011;70931;48.796;8.440;2024-01-30T06:32:47;8.07;;;2.17;;
81510;SDS011;70931;48.796;8.440;2024-01-30T06:35:12;6.83;;;2.90;;
81510;SDS011;70931;48.796;8.440;2024-01-30T06:37:38;7.43;;;2.90;;
81510;SDS011;70931;48.796;8.440;2024-01-30T06:40:03;6.47;;;2.40;;
81510;SDS011;70931;48.796;8.440;2024-01-30T06:42:28;5.70;;;2.45;;
81510;SDS011;70931;48.796;8.440;2024-01-30T06:44:54;6.90;;;2.67;;
81510;SDS011;70931;48.796;8.440;2024-01-30T06:47:19;7.97;;;2.67;;
81510;SDS011;70931;48.796;8.440;2024-01-30T06:49:44;5.27;;;2.40;;
81510;SDS011;70931;48.796;8.440;2024-01-30T06:52:09;5.00;;;2.30;;
81510;SDS011;70931;48.796;8.440;2024-01-30T06:54:35;8.17;;;3.10;;
81510;SDS011;70931;48.796;8.440;2024-01-30T06:57:00;7.07;;;2.67;;
81510;SDS011;70931;48.796;8.440;2024-01-30T06:59:25;9.05;;;3.03;;
81510;SDS011;70931;48.796;8.440;2024-01-30T07:01:51;5.50;;;2.57;;
81510;SDS011;70931;48.796;8.440;2024-01-30T07:04:16;6.53;;;3.00;;
81510;SDS011;70931;48.796;8.440;2024-01-30T07:06:41;6.00;;;2.37;;
81510;SDS011;70931;48.796;8.440;2024-01-30T07:09:07;6.10;;;2.60;;
81510;SDS011;70931;48.796;8.440;2024-01-30T07:11:32;6.40;;;2.27;;
81510;SDS011;70931;48.796;8.440;2024-01-30T07:13:57;8.43;;;2.67;;
81510;SDS011;70931;48.796;8.440;2024-01-30T07:16:22;7.87;;;3.80;;
81510;SDS011;70931;48.796;8.440;2024-01-30T07:18:47;7.60;;;3.63;;
81510;SDS011;70931;48.796;8.440;2024-01-30T07:21:13;7.83;;;3.47;;
81510;SDS011;70931;48.796;8.440;2024-01-30T07:23:38;6.13;;;2.83;;
81510;SDS011;70931;48.796;8.440;2024-01-30T07:26:03;6.90;;;2.67;;
81510;SDS011;70931;48.796;8.440;2024-01-30T07:28:29;5.93;;;2.83;;
81510;SDS011;70931;48.796;8.440;2024-01-30T07:30:54;4.90;;;2.20;;
81510;SDS011;70931;48.796;8.440;2024-01-30T07:33:19;5.70;;;2.33;;
81510;SDS011;70931;48.796;8.440;2024-01-30T07:35:45;6.23;;;2.53;;
81510;SDS011;70931;48.796;8.440;2024-01-30T07:38:10;7.93;;;3.28;;
81510;SDS011;70931;48.796;8.440;2024-01-30T07:40:36;6.13;;;2.50;;
81510;SDS011;70931;48.796;8.440;2024-01-30T07:43:01;5.97;;;2.10;;
81510;SDS011;70931;48.796;8.440;2024-01-30T07:45:26;4.97;;;2.30;;
81510;SDS011;70931;48.796;8.440;2024-01-30T07:47:51;6.10;;;2.70;;
81510;SDS011;70931;48.796;8.440;2024-01-30T07:50:17;5.73;;;2.67;;
81510;SDS011;70931;48.796;8.440;2024-01-30T07:52:42;6.97;;;3.10;;
81510;SDS011;70931;48.796;8.440;2024-01-30T07:55:08;6.47;;;2.72;;
81510;SDS011;70931;48.796;8.440;2024-01-30T07:57:34;6.68;;;3.22;;
81510;SDS011;70931;48.796;8.440;2024-01-30T07:59:59;8.27;;;4.07;;
81510;SDS011;70931;48.796;8.440;2024-01-30T08:02:25;9.00;;;4.10;;
81510;SDS011;70931;48.796;8.440;2024-01-30T08:04:50;7.43;;;3.77;;
81510;SDS011;70931;48.796;8.440;2024-01-30T08:07:15;6.53;;;3.10;;
81510;SDS011;70931;48.796;8.440;2024-01-30T08:09:40;8.33;;;3.07;;
81510;SDS011;70931;48.796;8.440;2024-01-30T08:12:06;30.17;;;13.43;;
81510;SDS011;70931;48.796;8.440;2024-01-30T08:14:31;14.57;;;7.13;;
81510;SDS011;70931;48.796;8.440;2024-01-30T08:16:56;8.83;;;3.80;;
81510;SDS011;70931;48.796;8.440;2024-01-30T08:19:22;7.03;;;2.97;;
81510;SDS011;70931;48.796;8.440;2024-01-30T08:21:47;6.57;;;2.67;;
81510;SDS011;70931;48.796;8.440;2024-01-30T08:24:12;7.23;;;2.87;;
81510;SDS011;70931;48.796;8.440;2024-01-30T08:26:37;6.70;;;3.07;;
81510;SDS011;70931;48.796;8.440;2024-01-30T08:29:03;5.80;;;2.60;;
81510;SDS011;70931;48.796;8.440;2024-01-30T08:31:28;6.23;;;2.63;;
81510;SDS011;70931;48.796;8.440;2024-01-30T08:33:53;6.13;;;2.43;;
81510;SDS011;70931;48.796;8.440;2024-01-30T08:36:19;6.60;;;3.00;;
81510;SDS011;70931;48.796;8.440;2024-01-30T08:38:44;6.28;;;3.00;;
81510;SDS011;70931;48.796;8.440;2024-01-30T08:41:10;6.20;;;2.63;;
81510;SDS011;70931;48.796;8.440;2024-01-30T08:43:35;6.37;;;3.00;;
81510;SDS011;70931;48.796;8.440;2024-01-30T08:46:00;7.23;;;2.87;;
81510;SDS011;70931;48.796;8.440;2024-01-30T08:48:26;8.77;;;3.07;;
81510;SDS011;70931;48.796;8.440;2024-01-30T08:50:51;7.03;;;3.08;;
81510;SDS011;70931;48.796;8.440;2024-01-30T08:53:16;6.87;;;2.77;;
81510;SDS011;70931;48.796;8.440;2024-01-30T08:55:41;7.43;;;3.20;;
81510;SDS011;70931;48.796;8.440;2024-01-30T08:58:07;6.70;;;2.80;;
81510;SDS011;70931;48.796;8.440;2024-01-30T09:00:32;7.57;;;3.10;;
81510;SDS011;70931;48.796;8.440;2024-01-30T09:02:57;6.87;;;2.63;;
81510;SDS011;70931;48.796;8.440;2024-01-30T09:05:22;6.07;;;2.70;;
81510;SDS011;70931;48.796;8.440;2024-01-30T09:07:48;6.10;;;2.50;;
81510;SDS011;70931;48.796;8.440;2024-01-30T09:10:13;6.93;;;2.87;;
81510;SDS011;70931;48.796;8.440;2024-01-30T09:12:38;6.03;;;2.83;;
81510;SDS011;70931;48.796;8.440;2024-01-30T09:15:03;5.93;;;2.70;;
81510;SDS011;70931;48.796;8.440;2024-01-30T09:17:29;6.65;;;2.97;;
81510;SDS011;70931;48.796;8.440;2024-01-30T09:19:54;7.47;;;3.07;;
81510;SDS011;70931;48.796;8.440;2024-01-30T09:22:19;7.40;;;2.97;;
81510;SDS011;70931;48.796;8.440;2024-01-30T09:24:45;9.00;;;3.27;;
81510;SDS011;70931;48.796;8.440;2024-01-30T09:27:10;7.60;;;3.30;;
81510;SDS011;70931;48.796;8.440;2024-01-30T09:29:35;11.80;;;5.47;;
81510;SDS011;70931;48.796;8.440;2024-01-30T09:32:00;8.77;;;3.80;;
81510;SDS011;70931;48.796;8.440;2024-01-30T09:34:26;9.80;;;4.93;;
81510;SDS011;70931;48.796;8.440;2024-01-30T09:36:51;9.40;;;4.50;;
81510;SDS011;70931;48.796;8.440;2024-01-30T09:39:16;6.97;;;2.93;;
81510;SDS011;70931;48.796;8.440;2024-01-30T09:41:44;10.90;;;5.87;;
81510;SDS011;70931;48.796;8.440;2024-01-30T09:44:13;7.28;;;2.65;;
81510;SDS011;70931;48.796;8.440;2024-01-30T09:46:41;8.15;;;3.58;;
81510;SDS011;70931;48.796;8.440;2024-01-30T09:49:07;7.70;;;3.55;;
81510;SDS011;70931;48.796;8.440;2024-01-30T09:51:33;7.07;;;3.13;;
81510;SDS011;70931;48.796;8.440;2024-01-30T09:54:00;8.48;;;3.72;;
81510;SDS011;70931;48.796;8.440;2024-01-30T09:56:27;6.95;;;3.20;;
81510;SDS011;70931;48.796;8.440;2024-01-30T09:58:52;7.20;;;3.30;;
81510;SDS011;70931;48.796;8.440;2024-01-30T10:01:17;6.23;;;3.00;;
81510;SDS011;70931;48.796;8.440;2024-01-30T10:03:43;6.20;;;3.20;;
81510;SDS011;70931;48.796;8.440;2024-01-30T10:06:08;7.10;;;3.37;;
81510;SDS011;70931;48.796;8.440;2024-01-30T10:08:34;7.70;;;3.38;;
81510;SDS011;70931;48.796;8.440;2024-01-30T10:10:59;8.00;;;3.47;;
81510;SDS011;70931;48.796;8.440;2024-01-30T10:13:25;6.73;;;3.50;;
81510;SDS011;70931;48.796;8.440;2024-01-30T10:15:50;8.80;;;3.10;;
81510;SDS011;70931;48.796;8.440;2024-01-30T10:18:15;7.17;;;3.03;;
81510;SDS011;70931;48.796;8.440;2024-01-30T10:20:40;6.13;;;2.70;;
81510;SDS011;70931;48.796;8.440;2024-01-30T10:23:06;8.83;;;3.30;;
81510;SDS011;70931;48.796;8.440;2024-01-30T10:25:31;9.57;;;3.70;;
81510;SDS011;70931;48.796;8.440;2024-01-30T10:27:56;10.45;;;3.50;;
81510;SDS011;70931;48.796;8.440;2024-01-30T10:30:22;7.18;;;2.97;;
81510;SDS011;70931;48.796;8.440;2024-01-30T10:32:48;6.38;;;3.22;;
81510;SDS011;70931;48.796;8.440;2024-01-30T10:35:13;7.78;;;3.40;;
81510;SDS011;70931;48.796;8.440;2024-01-30T10:37:38;6.88;;;2.97;;
81510;SDS011;70931;48.796;8.440;2024-01-30T10:40:04;7.15;;;3.13;;
81510;SDS011;70931;48.796;8.440;2024-01-30T10:42:31;7.47;;;3.72;;
81510;SDS011;70931;48.796;8.440;2024-01-30T10:45:00;7.65;;;3.63;;
81510;SDS011;70931;48.796;8.440;2024-01-30T10:47:31;8.85;;;3.45;;
81510;SDS011;70931;48.796;8.440;2024-01-30T10:49:59;7.95;;;3.85;;
81510;SDS011;70931;48.796;8.440;2024-01-30T10:52:26;7.25;;;3.25;;
81510;SDS011;70931;48.796;8.440;2024-01-30T10:54:54;8.05;;;3.10;;
81510;SDS011;70931;48.796;8.440;2024-01-30T10:57:19;8.10;;;3.35;;
81510;SDS011;70931;48.796;8.440;2024-01-30T10:59:57;8.05;;;3.55;;
81510;SDS011;70931;48.796;8.440;2024-01-30T11:02:26;6.95;;;3.35;;
81510;SDS011;70931;48.796;8.440;2024-01-30T11:04:56;6.35;;;2.90;;
81510;SDS011;70931;48.796;8.440;2024-01-30T11:07:27;7.03;;;3.00;;
81510;SDS011;70931;48.796;8.440;2024-01-30T11:09:54;6.20;;;2.20;;
81510;SDS011;70931;48.796;8.440;2024-01-30T11:12:25;5.88;;;2.20;;
81510;SDS011;70931;48.796;8.440;2024-01-30T11:20:16;6.63;;;2.63;;
81510;SDS011;70931;48.796;8.440;2024-01-30T11:22:44;5.63;;;2.40;;
81510;SDS011;70931;48.796;8.440;2024-01-30T11:25:11;4.97;;;1.95;;
81510;SDS011;70931;48.796;8.440;2024-01-30T11:27:37;6.68;;;2.55;;
81510;SDS011;70931;48.796;8.440;2024-01-30T11:30:03;5.15;;;2.05;;
81510;SDS011;70931;48.796;8.440;2024-01-30T11:32:29;4.40;;;1.60;;
81510;SDS011;70931;48.796;8.440;2024-01-30T11:34:55;5.90;;;2.10;;
81510;SDS011;70931;48.796;8.440;2024-01-30T11:37:20;4.88;;;2.00;;
81510;SDS011;70931;48.796;8.440;2024-01-30T11:39:46;5.20;;;1.95;;
81510;SDS011;70931;48.796;8.440;2024-01-30T11:42:13;4.65;;;2.00;;
81510;SDS011;70931;48.796;8.440;2024-01-30T11:44:38;5.22;;;2.05;;
81510;SDS011;70931;48.796;8.440;2024-01-30T11:47:03;5.03;;;2.00;;
81510;SDS011;70931;48.796;8.440;2024-01-30T11:49:29;5.07;;;2.20;;
81510;SDS011;70931;48.796;8.440;2024-01-30T11:51:54;4.78;;;2.38;;
81510;SDS011;70931;48.796;8.440;2024-01-30T11:54:19;5.43;;;2.50;;
81510;SDS011;70931;48.796;8.440;2024-01-30T11:56:45;4.97;;;2.33;;
81510;SDS011;70931;48.796;8.440;2024-01-30T11:59:10;5.00;;;2.10;;
81510;SDS011;70931;48.796;8.440;2024-01-30T12:01:35;5.10;;;2.10;;
81510;SDS011;70931;48.796;8.440;2024-01-30T12:04:01;6.10;;;2.30;;
81510;SDS011;70931;48.796;8.440;2024-01-30T12:06:27;5.13;;;2.33;;
81510;SDS011;70931;48.796;8.440;2024-01-30T12:08:59;5.55;;;2.33;;
81510;SDS011;70931;48.796;8.440;2024-01-30T12:11:25;4.95;;;2.40;;
81510;SDS011;70931;48.796;8.440;2024-01-30T12:13:51;5.30;;;2.40;;
81510;SDS011;70931;48.796;8.440;2024-01-30T12:16:17;5.32;;;2.30;;
81510;SDS011;70931;48.796;8.440;2024-01-30T12:18:43;6.75;;;2.40;;
81510;SDS011;70931;48.796;8.440;2024-01-30T12:21:08;5.23;;;2.30;;
81510;SDS011;70931;48.796;8.440;2024-01-30T12:23:34;5.83;;;2.30;;
81510;SDS011;70931;48.796;8.440;2024-01-30T12:26:00;5.97;;;2.35;;
81510;SDS011;70931;48.796;8.440;2024-01-30T12:28:26;5.47;;;2.25;;
81510;SDS011;70931;48.796;8.440;2024-01-30T12:31:01;5.13;;;2.00;;
81510;SDS011;70931;48.796;8.440;2024-01-30T12:33:27;5.43;;;2.40;;
81510;SDS011;70931;48.796;8.440;2024-01-30T12:35:52;5.53;;;2.40;;
81510;SDS011;70931;48.796;8.440;2024-01-30T12:38:17;5.47;;;2.50;;
81510;SDS011;70931;48.796;8.440;2024-01-30T12:40:42;6.87;;;2.90;;
81510;SDS011;70931;48.796;8.440;2024-01-30T12:43:08;6.27;;;2.70;;
81510;SDS011;70931;48.796;8.440;2024-01-30T12:45:33;6.15;;;2.40;;
81510;SDS011;70931;48.796;8.440;2024-01-30T12:47:59;8.00;;;2.30;;
81510;SDS011;70931;48.796;8.440;2024-01-30T12:50:24;5.80;;;2.40;;
81510;SDS011;70931;48.796;8.440;2024-01-30T12:52:49;10.13;;;2.70;;
81510;SDS011;70931;48.796;8.440;2024-01-30T12:55:14;6.17;;;2.37;;
81510;SDS011;70931;48.796;8.440;2024-01-30T12:57:40;5.18;;;2.20;;
81510;SDS011;70931;48.796;8.440;2024-01-30T13:00:05;6.03;;;2.80;;
81510;SDS011;70931;48.796;8.440;2024-01-30T13:02:31;6.10;;;2.42;;
81510;SDS011;70931;48.796;8.440;2024-01-30T13:04:56;6.20;;;2.70;;
81510;SDS011;70931;48.796;8.440;2024-01-30T13:07:21;6.80;;;2.67;;
81510;SDS011;70931;48.796;8.440;2024-01-30T13:09:47;5.33;;;2.33;;
81510;SDS011;70931;48.796;8.440;2024-01-30T13:12:12;5.00;;;2.00;;
81510;SDS011;70931;48.796;8.440;2024-01-30T13:14:37;10.37;;;2.67;;
81510;SDS011;70931;48.796;8.440;2024-01-30T13:17:03;6.30;;;2.60;;
81510;SDS011;70931;48.796;8.440;2024-01-30T13:19:29;6.32;;;2.65;;
81510;SDS011;70931;48.796;8.440;2024-01-30T13:21:54;6.47;;;2.40;;
81510;SDS011;70931;48.796;8.440;2024-01-30T13:24:19;6.23;;;2.70;;
81510;SDS011;70931;48.796;8.440;2024-01-30T13:26:45;6.87;;;2.80;;
81510;SDS011;70931;48.796;8.440;2024-01-30T13:29:10;6.50;;;2.38;;
81510;SDS011;70931;48.796;8.440;2024-01-30T13:31:35;5.93;;;2.70;;
81510;SDS011;70931;48.796;8.440;2024-01-30T13:34:00;6.73;;;2.80;;
81510;SDS011;70931;48.796;8.440;2024-01-30T13:36:26;6.07;;;3.03;;
81510;SDS011;70931;48.796;8.440;2024-01-30T13:38:51;6.07;;;3.00;;
81510;SDS011;70931;48.796;8.440;2024-01-30T13:41:16;6.43;;;3.07;;
81510;SDS011;70931;48.796;8.440;2024-01-30T13:43:41;6.17;;;2.70;;
81510;SDS011;70931;48.796;8.440;2024-01-30T13:46:07;7.40;;;3.47;;
81510;SDS011;70931;48.796;8.440;2024-01-30T13:48:32;6.70;;;2.97;;
81510;SDS011;70931;48.796;8.440;2024-01-30T13:50:57;7.53;;;3.40;;
81510;SDS011;70931;48.796;8.440;2024-01-30T13:53:22;6.50;;;3.03;;
81510;SDS011;70931;48.796;8.440;2024-01-30T13:55:48;6.27;;;2.90;;
81510;SDS011;70931;48.796;8.440;2024-01-30T13:58:13;7.00;;;3.33;;
81510;SDS011;70931;48.796;8.440;2024-01-30T14:00:38;6.53;;;3.23;;
81510;SDS011;70931;48.796;8.440;2024-01-30T14:03:03;6.17;;;3.10;;
81510;SDS011;70931;48.796;8.440;2024-01-30T14:05:29;9.07;;;3.90;;
81510;SDS011;70931;48.796;8.440;2024-01-30T14:07:54;9.77;;;3.67;;
81510;SDS011;70931;48.796;8.440;2024-01-30T14:10:21;7.72;;;3.60;;
81510;SDS011;70931;48.796;8.440;2024-01-30T14:12:46;7.23;;;3.20;;
81510;SDS011;70931;48.796;8.440;2024-01-30T14:15:11;6.83;;;3.77;;
81510;SDS011;70931;48.796;8.440;2024-01-30T14:17:37;7.53;;;3.40;;
81510;SDS011;70931;48.796;8.440;2024-01-30T14:20:02;8.17;;;3.70;;
81510;SDS011;70931;48.796;8.440;2024-01-30T14:22:28;9.15;;;4.82;;
81510;SDS011;70931;48.796;8.440;2024-01-30T14:24:53;7.63;;;4.23;;
81510;SDS011;70931;48.796;8.440;2024-01-30T14:27:19;8.00;;;3.70;;
81510;SDS011;70931;48.796;8.440;2024-01-30T14:29:44;7.20;;;3.90;;
81510;SDS011;70931;48.796;8.440;2024-01-30T14:32:09;8.23;;;3.93;;
81510;SDS011;70931;48.796;8.440;2024-01-30T14:34:34;8.77;;;3.53;;
81510;SDS011;70931;48.796;8.440;2024-01-30T14:37:02;7.32;;;4.07;;
81510;SDS011;70931;48.796;8.440;2024-01-30T14:39:27;7.70;;;3.67;;
81510;SDS011;70931;48.796;8.440;2024-01-30T14:41:52;8.93;;;3.80;;
81510;SDS011;70931;48.796;8.440;2024-01-30T14:44:17;8.30;;;3.53;;